createdAt,value
2023-03-12T00:00:42.164Z,6.50
2023-03-12T00:03:06.664Z,6.60
2023-03-12T00:05:32.454Z,6.60
2023-03-12T00:07:59.824Z,6.70
2023-03-12T00:10:24.214Z,6.60
2023-03-12T00:12:48.654Z,6.60
2023-03-12T00:15:14.005Z,6.50
2023-03-12T00:17:38.700Z,6.40
2023-03-12T00:20:03.611Z,6.40
2023-03-12T00:22:29.894Z,6.40
2023-03-12T00:24:55.272Z,6.30
2023-03-12T00:27:19.627Z,6.40
2023-03-12T00:29:43.988Z,6.30
2023-03-12T00:32:09.343Z,6.30
2023-03-12T00:34:33.658Z,6.20
2023-03-12T00:36:58.066Z,6.30
2023-03-12T00:39:23.849Z,6.20
2023-03-12T00:41:48.280Z,6.10
2023-03-12T00:44:12.598Z,5.90
2023-03-12T00:46:37.038Z,5.90
2023-03-12T00:49:01.373Z,5.80
2023-03-12T00:51:25.996Z,5.80
2023-03-12T00:53:50.611Z,5.70
2023-03-12T00:56:16.651Z,5.60
2023-03-12T00:58:42.775Z,5.70
2023-03-12T01:01:08.648Z,5.70
2023-03-12T01:03:33.032Z,5.70
2023-03-12T01:05:57.492Z,5.70
2023-03-12T01:08:22.770Z,5.70
2023-03-12T01:10:47.366Z,5.70
2023-03-12T01:13:13.245Z,5.70
2023-03-12T01:15:37.642Z,5.80
2023-03-12T01:18:02.032Z,5.80
2023-03-12T01:20:26.556Z,5.80
2023-03-12T01:22:51.134Z,5.70
2023-03-12T01:25:15.615Z,5.60
2023-03-12T01:27:40.031Z,5.70
2023-03-12T01:30:10.109Z,5.70
2023-03-12T01:32:35.044Z,5.60
2023-03-12T01:35:00.343Z,5.60
2023-03-12T01:37:24.828Z,5.60
2023-03-12T01:39:49.196Z,5.60
2023-03-12T01:42:14.638Z,5.70
2023-03-12T01:44:56.587Z,5.70
2023-03-12T01:47:22.852Z,5.60
2023-03-12T01:49:49.418Z,5.50
2023-03-12T01:52:16.114Z,5.50
2023-03-12T01:54:51.819Z,5.40
2023-03-12T01:57:22.061Z,5.30
2023-03-12T01:59:49.869Z,5.20
2023-03-12T02:02:18.735Z,5.10
2023-03-12T02:04:47.705Z,5.20
2023-03-12T02:07:14.429Z,5.20
2023-03-12T02:09:42.102Z,5.20
2023-03-12T02:12:07.647Z,5.10
2023-03-12T02:14:32.613Z,5.00
2023-03-12T02:16:57.582Z,5.10
2023-03-12T02:19:30.262Z,5.00
2023-03-12T02:21:56.321Z,5.10
2023-03-12T02:24:31.738Z,5.10
2023-03-12T02:26:57.894Z,5.00
2023-03-12T02:29:23.317Z,5.00
2023-03-12T02:31:53.231Z,5.00
2023-03-12T02:34:17.711Z,5.00
2023-03-12T02:36:42.164Z,4.90
2023-03-12T02:39:06.950Z,4.90
2023-03-12T02:41:34.317Z,4.80
2023-03-12T02:44:05.576Z,4.80
2023-03-12T02:46:34.812Z,4.90
2023-03-12T02:49:02.023Z,5.00
2023-03-12T02:51:26.430Z,5.00
2023-03-12T02:53:54.896Z,4.90
2023-03-12T02:56:19.777Z,4.80
2023-03-12T02:58:44.751Z,4.70
2023-03-12T03:01:10.900Z,4.70
2023-03-12T03:03:35.705Z,4.60
2023-03-12T03:06:00.114Z,4.60
2023-03-12T03:08:27.274Z,4.50
2023-03-12T03:10:52.786Z,4.60
2023-03-12T03:13:17.653Z,4.60
2023-03-12T03:15:42.088Z,4.80
2023-03-12T03:18:08.356Z,4.80
2023-03-12T03:20:33.392Z,4.80
2023-03-12T03:22:57.781Z,4.90
2023-03-12T03:25:23.656Z,4.90
2023-03-12T03:27:48.405Z,4.80
2023-03-12T03:30:13.604Z,4.80
2023-03-12T03:32:41.798Z,4.80
2023-03-12T03:35:10.061Z,4.70
2023-03-12T03:37:34.447Z,4.80
2023-03-12T03:39:58.995Z,4.90
2023-03-12T03:42:23.879Z,4.80
2023-03-12T03:44:48.265Z,4.70
2023-03-12T03:47:12.967Z,4.70
2023-03-12T03:49:37.578Z,4.70
2023-03-12T03:52:03.428Z,4.70
2023-03-12T03:54:33.918Z,4.60
2023-03-12T03:56:59.008Z,4.70
2023-03-12T03:59:23.421Z,4.70
2023-03-12T04:01:48.086Z,4.60
2023-03-12T04:04:12.785Z,4.60
2023-03-12T04:06:37.496Z,4.70
2023-03-12T04:09:03.488Z,4.80
2023-03-12T04:11:31.912Z,4.80
2023-03-12T04:13:58.302Z,4.70
2023-03-12T04:16:26.572Z,4.50
2023-03-12T04:18:52.204Z,4.30
2023-03-12T04:21:16.967Z,4.20
2023-03-12T04:23:42.626Z,4.20
2023-03-12T04:26:10.699Z,4.20
2023-03-12T04:28:35.829Z,4.30
2023-03-12T04:31:03.008Z,4.20
2023-03-12T04:33:35.734Z,4.20
2023-03-12T04:36:01.244Z,4.20
2023-03-12T04:38:27.417Z,4.00
2023-03-12T04:40:59.971Z,3.90
2023-03-12T04:43:27.548Z,3.90
2023-03-12T04:45:51.995Z,3.90
2023-03-12T04:48:16.789Z,4.20
2023-03-12T04:50:41.966Z,4.30
2023-03-12T04:53:06.510Z,4.30
2023-03-12T04:55:31.141Z,4.50
2023-03-12T04:57:55.645Z,5.00
2023-03-12T05:00:24.968Z,5.20
2023-03-12T05:02:49.544Z,5.60
2023-03-12T05:05:14.669Z,5.90
2023-03-12T05:07:39.713Z,6.10
2023-03-12T05:10:04.447Z,6.00
2023-03-12T05:12:29.381Z,6.10
2023-03-12T05:14:53.784Z,6.40
2023-03-12T05:17:19.595Z,7.00
2023-03-12T05:19:44.459Z,7.50
2023-03-12T05:22:09.171Z,7.50
2023-03-12T05:24:34.677Z,7.40
2023-03-12T05:27:00.383Z,7.20
2023-03-12T05:29:25.632Z,7.20
2023-03-12T05:31:51.969Z,7.10
2023-03-12T05:34:17.968Z,7.00
2023-03-12T05:36:43.216Z,6.90
2023-03-12T05:39:08.754Z,6.60
2023-03-12T05:41:33.622Z,6.80
2023-03-12T05:44:04.283Z,7.00
2023-03-12T05:46:29.328Z,6.80
2023-03-12T05:48:55.521Z,6.70
2023-03-12T05:51:22.316Z,6.90
2023-03-12T05:53:48.474Z,6.80
2023-03-12T05:56:15.056Z,6.60
2023-03-12T05:58:40.106Z,6.90
2023-03-12T06:01:05.059Z,7.50
2023-03-12T06:03:29.812Z,8.20
2023-03-12T06:05:56.448Z,8.60
2023-03-12T06:08:23.116Z,8.90
2023-03-12T06:10:47.984Z,9.00
2023-03-12T06:13:12.414Z,9.40
2023-03-12T06:15:37.231Z,9.30
2023-03-12T06:18:03.311Z,9.50
2023-03-12T06:20:27.901Z,9.70
2023-03-12T06:22:54.127Z,9.90
2023-03-12T06:25:20.118Z,9.90
2023-03-12T06:27:44.589Z,9.90
2023-03-12T06:30:10.789Z,9.90
2023-03-12T06:32:35.181Z,9.60
2023-03-12T06:35:00.863Z,9.50
2023-03-12T06:37:27.289Z,9.40
2023-03-12T06:39:52.342Z,9.30
2023-03-12T06:42:19.671Z,9.10
2023-03-12T06:44:44.074Z,9.10
2023-03-12T06:47:08.560Z,9.00
2023-03-12T06:49:35.780Z,8.90
2023-03-12T06:52:00.219Z,8.70
2023-03-12T06:54:24.675Z,8.40
2023-03-12T06:56:49.135Z,8.30
2023-03-12T06:59:15.070Z,8.10
2023-03-12T07:01:39.590Z,8.20
2023-03-12T07:04:04.124Z,8.40
2023-03-12T07:06:28.620Z,8.60
2023-03-12T07:08:54.634Z,8.80
2023-03-12T07:11:19.245Z,8.60
2023-03-12T07:13:43.764Z,8.60
2023-03-12T07:16:11.667Z,8.30
2023-03-12T07:18:36.408Z,8.40
2023-03-12T07:21:02.048Z,8.10
2023-03-12T07:23:27.796Z,8.00
2023-03-12T07:25:52.505Z,7.90
2023-03-12T07:28:18.269Z,7.80
2023-03-12T07:30:43.179Z,7.70
2023-03-12T07:33:12.107Z,7.50
2023-03-12T07:35:36.831Z,7.30
2023-03-12T07:38:03.098Z,7.00
2023-03-12T07:40:30.204Z,7.00
2023-03-12T07:42:54.720Z,7.10
2023-03-12T07:45:19.819Z,7.00
2023-03-12T07:47:44.812Z,6.90
2023-03-12T07:50:12.307Z,6.90
2023-03-12T07:52:36.883Z,7.00
2023-03-12T07:55:01.374Z,6.80
2023-03-12T07:57:27.735Z,6.70
2023-03-12T07:59:52.459Z,6.50
2023-03-12T08:02:17.131Z,6.60
2023-03-12T08:04:41.888Z,6.60
2023-03-12T08:07:09.330Z,6.70
2023-03-12T08:09:34.903Z,6.70
2023-03-12T08:11:59.483Z,6.60
2023-03-12T08:14:24.030Z,6.60
2023-03-12T08:16:50.003Z,6.60
2023-03-12T08:19:14.571Z,6.60
2023-03-12T08:21:40.518Z,6.40
2023-03-12T08:24:06.560Z,6.40
2023-03-12T08:26:32.178Z,6.50
2023-03-12T08:28:56.744Z,6.50
2023-03-12T08:31:21.322Z,6.50
2023-03-12T08:33:47.048Z,6.60
2023-03-12T08:36:11.710Z,6.70
2023-03-12T08:38:36.149Z,6.90
2023-03-12T08:41:03.470Z,6.90
2023-03-12T08:43:29.659Z,6.90
2023-03-12T08:45:57.717Z,6.90
2023-03-12T08:48:22.143Z,7.10
2023-03-12T08:50:46.788Z,7.20
2023-03-12T08:53:11.171Z,7.30
2023-03-12T08:55:35.688Z,7.40
2023-03-12T08:58:01.896Z,7.40
2023-03-12T09:00:27.292Z,7.20
2023-03-12T09:02:52.557Z,7.20
2023-03-12T09:05:17.179Z,7.40
2023-03-12T09:07:41.749Z,7.40
2023-03-12T09:10:07.515Z,7.40
2023-03-12T09:12:32.368Z,7.40
2023-03-12T09:15:03.489Z,7.30
2023-03-12T09:17:30.763Z,7.40
2023-03-12T09:19:55.138Z,7.20
2023-03-12T09:22:19.646Z,7.30
2023-03-12T09:24:44.108Z,7.40
2023-03-12T09:27:08.649Z,7.40
2023-03-12T09:29:33.438Z,7.40
2023-03-12T09:32:00.114Z,7.40
2023-03-12T09:34:24.625Z,7.40
2023-03-12T09:36:49.306Z,7.50
2023-03-12T09:39:14.141Z,7.50
2023-03-12T09:41:41.654Z,7.60
2023-03-12T09:44:12.719Z,7.70
2023-03-12T09:46:42.499Z,7.80
2023-03-12T09:49:15.957Z,7.90
2023-03-12T09:51:45.728Z,7.90
2023-03-12T09:54:23.636Z,8.00
2023-03-12T09:56:48.552Z,8.10
2023-03-12T09:59:14.215Z,8.20
2023-03-12T10:01:43.121Z,8.20
2023-03-12T10:04:48.893Z,8.30
2023-03-12T10:07:27.963Z,8.20
2023-03-12T10:10:29.317Z,8.20
2023-03-12T10:13:18.965Z,8.30
2023-03-12T10:15:52.182Z,8.40
2023-03-12T10:18:27.940Z,8.30
2023-03-12T10:21:14.774Z,8.30
2023-03-12T10:24:07.293Z,8.30
2023-03-12T10:26:39.300Z,8.30
2023-03-12T10:29:12.591Z,8.10
2023-03-12T10:31:50.924Z,8.10
2023-03-12T10:34:20.594Z,8.20
2023-03-12T10:36:50.435Z,8.50
2023-03-12T10:39:17.458Z,8.60
2023-03-12T10:41:44.080Z,8.60
2023-03-12T10:44:11.007Z,8.60
2023-03-12T10:46:57.626Z,8.70
2023-03-12T10:49:26.739Z,9.00
2023-03-12T10:52:01.162Z,9.20
2023-03-12T10:54:32.620Z,9.30
2023-03-12T10:56:57.646Z,9.40
2023-03-12T10:59:23.475Z,9.50
2023-03-12T11:01:51.281Z,9.80
2023-03-12T11:04:23.898Z,9.80
2023-03-12T11:07:07.994Z,10.10
2023-03-12T11:09:32.644Z,10.40
2023-03-12T11:11:58.113Z,10.40
2023-03-12T11:14:23.902Z,10.10
2023-03-12T11:16:48.617Z,10.20
2023-03-12T11:19:15.729Z,10.20
2023-03-12T11:21:41.316Z,10.50
2023-03-12T11:24:12.542Z,10.60
2023-03-12T11:26:45.176Z,10.70
2023-03-12T11:29:25.340Z,10.60
2023-03-12T11:31:58.979Z,10.70
2023-03-12T11:34:27.794Z,10.80
2023-03-12T11:37:01.359Z,10.90
2023-03-12T11:39:35.091Z,11.10
2023-03-12T11:42:14.194Z,11.20
2023-03-12T11:44:51.098Z,11.00
2023-03-12T11:47:27.686Z,10.90
2023-03-12T11:50:04.246Z,11.00
2023-03-12T11:52:39.287Z,11.20
2023-03-12T11:55:34.476Z,11.30
2023-03-12T11:58:11.535Z,11.40
2023-03-12T12:00:42.776Z,11.50
2023-03-12T12:03:36.291Z,11.50
2023-03-12T12:06:06.926Z,11.40
2023-03-12T12:08:49.479Z,11.60
2023-03-12T12:11:25.092Z,11.60
2023-03-12T12:13:59.960Z,11.60
2023-03-12T12:16:40.853Z,11.30
2023-03-12T12:19:20.952Z,11.00
2023-03-12T12:22:07.701Z,11.30
2023-03-12T12:24:44.004Z,11.50
2023-03-12T12:27:20.631Z,11.60
2023-03-12T12:29:59.508Z,11.80
2023-03-12T12:32:33.720Z,11.80
2023-03-12T12:35:21.525Z,12.00
2023-03-12T12:37:52.262Z,12.20
2023-03-12T12:40:23.177Z,12.30
2023-03-12T12:43:10.655Z,12.30
2023-03-12T12:45:38.728Z,12.50
2023-03-12T12:48:06.251Z,12.60
2023-03-12T12:50:34.571Z,12.20
2023-03-12T12:53:07.015Z,12.30
2023-03-12T12:55:35.887Z,12.50
2023-03-12T12:58:04.710Z,12.50
2023-03-12T13:00:49.657Z,12.60
2023-03-12T13:03:17.753Z,12.70
2023-03-12T13:05:50.347Z,12.80
2023-03-12T13:08:33.703Z,12.70
2023-03-12T13:11:16.266Z,12.90
2023-03-12T13:13:44.851Z,12.90
2023-03-12T13:16:35.922Z,13.00
2023-03-12T13:19:00.736Z,13.00
2023-03-12T13:21:32.008Z,13.20
2023-03-12T13:24:10.967Z,13.40
2023-03-12T13:26:52.264Z,13.50
2023-03-12T13:29:24.887Z,13.70
2023-03-12T13:31:50.985Z,13.90
2023-03-12T13:34:51.280Z,13.70
2023-03-12T13:37:58.144Z,13.70
2023-03-12T13:41:00.845Z,13.80
2023-03-12T13:43:51.202Z,13.50
2023-03-12T13:46:38.577Z,13.40
2023-03-12T13:49:12.535Z,13.20
2023-03-12T13:51:46.359Z,12.90
2023-03-12T13:54:18.768Z,12.60
2023-03-12T13:56:55.380Z,12.60
2023-03-12T13:59:21.204Z,12.40
2023-03-12T14:01:50.029Z,12.30
2023-03-12T14:04:19.769Z,12.10
2023-03-12T14:06:56.877Z,12.10
2023-03-12T14:09:28.883Z,12.10
2023-03-12T14:12:02.196Z,12.30
2023-03-12T14:14:48.393Z,12.10
2023-03-12T14:17:19.487Z,11.90
2023-03-12T14:19:49.323Z,11.90
2023-03-12T14:22:15.225Z,11.70
2023-03-12T14:24:43.044Z,11.80
2023-03-12T14:27:15.128Z,11.80
2023-03-12T14:29:43.581Z,11.70
2023-03-12T14:32:15.970Z,11.70
2023-03-12T14:34:44.017Z,11.60
2023-03-12T14:37:16.533Z,11.50
2023-03-12T14:39:44.643Z,11.50
2023-03-12T14:42:10.294Z,11.50
2023-03-12T14:44:36.844Z,11.60
2023-03-12T14:47:03.360Z,11.60
2023-03-12T14:49:28.244Z,11.70
2023-03-12T14:51:52.926Z,11.70
2023-03-12T14:54:20.725Z,11.70
2023-03-12T14:56:46.600Z,11.70
2023-03-12T14:59:24.339Z,11.80
2023-03-12T15:01:49.359Z,11.90
2023-03-12T15:04:18.155Z,12.00
2023-03-12T15:06:48.317Z,12.10
2023-03-12T15:09:22.110Z,12.20
2023-03-12T15:11:53.680Z,12.20
2023-03-12T15:14:18.470Z,12.10
2023-03-12T15:16:44.022Z,12.10
2023-03-12T15:19:12.730Z,12.10
2023-03-12T15:21:37.406Z,12.00
2023-03-12T15:24:02.216Z,12.00
2023-03-12T15:26:34.485Z,12.10
2023-03-12T15:29:01.127Z,12.10
2023-03-12T15:31:25.691Z,12.10
2023-03-12T15:34:03.397Z,11.90
2023-03-12T15:36:30.190Z,11.70
2023-03-12T15:38:57.080Z,11.60
2023-03-12T15:41:24.452Z,11.70
2023-03-12T15:43:53.757Z,11.70
2023-03-12T15:46:19.541Z,11.70
2023-03-12T15:48:50.398Z,11.70
2023-03-12T15:51:17.458Z,11.70
2023-03-12T15:53:42.847Z,11.60
2023-03-12T15:56:22.347Z,11.50
2023-03-12T15:58:46.861Z,11.50
2023-03-12T16:01:14.812Z,11.40
2023-03-12T16:03:39.887Z,11.40
2023-03-12T16:06:04.529Z,11.40
2023-03-12T16:08:41.108Z,11.30
2023-03-12T16:11:06.135Z,11.30
2023-03-12T16:13:33.942Z,11.20
2023-03-12T16:15:58.883Z,11.20
2023-03-12T16:18:25.130Z,11.20
2023-03-12T16:20:51.150Z,11.20
2023-03-12T16:23:17.551Z,11.10
2023-03-12T16:25:45.135Z,10.90
2023-03-12T16:28:11.796Z,10.70
2023-03-12T16:30:37.983Z,10.50
2023-03-12T16:33:08.625Z,10.50
2023-03-12T16:35:35.049Z,10.30
2023-03-12T16:38:01.112Z,10.30
2023-03-12T16:40:33.382Z,10.30
2023-03-12T16:43:02.571Z,10.30
2023-03-12T16:45:27.928Z,10.20
2023-03-12T16:47:59.207Z,10.10
2023-03-12T16:50:24.597Z,10.00
2023-03-12T16:52:51.959Z,10.00
2023-03-12T16:55:16.666Z,9.90
2023-03-12T16:57:46.514Z,9.80
2023-03-12T17:00:17.106Z,9.90
2023-03-12T17:02:41.782Z,9.90
2023-03-12T17:05:06.799Z,10.00
2023-03-12T17:07:32.869Z,9.90
2023-03-12T17:09:58.776Z,9.80
2023-03-12T17:12:30.953Z,9.70
2023-03-12T17:14:55.475Z,9.60
2023-03-12T17:17:23.145Z,9.50
2023-03-12T17:19:47.628Z,9.40
2023-03-12T17:22:12.107Z,9.40
2023-03-12T17:24:36.610Z,9.40
2023-03-12T17:27:02.626Z,9.40
2023-03-12T17:29:27.267Z,9.30
2023-03-12T17:31:52.869Z,9.30
2023-03-12T17:34:18.168Z,9.30
2023-03-12T17:36:42.590Z,9.20
2023-03-12T17:39:07.129Z,9.20
2023-03-12T17:41:33.041Z,9.20
2023-03-12T17:44:01.711Z,9.10
2023-03-12T17:46:26.235Z,9.10
2023-03-12T17:48:52.551Z,9.10
2023-03-12T17:51:17.090Z,9.10
2023-03-12T17:53:43.956Z,9.10
2023-03-12T17:56:09.416Z,9.00
2023-03-12T17:58:33.861Z,9.00
2023-03-12T18:01:02.381Z,9.00
2023-03-12T18:03:28.044Z,8.90
2023-03-12T18:05:52.856Z,9.00
2023-03-12T18:08:17.961Z,9.10
2023-03-12T18:10:43.398Z,9.10
2023-03-12T18:13:08.186Z,9.10
2023-03-12T18:15:33.751Z,9.00
2023-03-12T18:18:01.077Z,9.00
2023-03-12T18:20:36.189Z,8.90
2023-03-12T18:23:03.576Z,8.80
2023-03-12T18:25:28.084Z,8.90
2023-03-12T18:27:52.577Z,8.90
2023-03-12T18:30:18.777Z,8.80
2023-03-12T18:32:43.417Z,8.70
2023-03-12T18:35:10.971Z,8.60
2023-03-12T18:37:35.530Z,8.60
2023-03-12T18:40:00.043Z,8.50
2023-03-12T18:42:24.514Z,8.50
2023-03-12T18:44:51.144Z,8.40
2023-03-12T18:47:15.620Z,8.40
2023-03-12T18:49:40.274Z,8.40
2023-03-12T18:52:06.677Z,8.40
2023-03-12T18:54:33.738Z,8.30
2023-03-12T18:56:58.220Z,8.30
2023-03-12T18:59:22.789Z,8.30
2023-03-12T19:01:47.386Z,8.30
2023-03-12T19:04:12.698Z,8.30
2023-03-12T19:06:49.777Z,8.30
2023-03-12T19:09:16.466Z,8.30
2023-03-12T19:11:40.883Z,8.40
2023-03-12T19:14:05.589Z,8.50
2023-03-12T19:16:30.738Z,8.60
2023-03-12T19:18:55.221Z,8.70
2023-03-12T19:21:19.893Z,8.60
2023-03-12T19:23:44.588Z,8.50
2023-03-12T19:26:10.571Z,8.50
2023-03-12T19:28:35.311Z,8.40
2023-03-12T19:31:03.099Z,8.40
2023-03-12T19:33:28.595Z,8.40
2023-03-12T19:35:53.298Z,8.40
2023-03-12T19:38:17.985Z,8.40
2023-03-12T19:40:42.465Z,8.40
2023-03-12T19:43:08.612Z,8.40
2023-03-12T19:45:33.462Z,8.50
2023-03-12T19:47:58.383Z,8.60
2023-03-12T19:50:24.025Z,8.60
2023-03-12T19:52:48.990Z,8.60
2023-03-12T19:55:13.501Z,8.50
2023-03-12T19:57:37.937Z,8.60
2023-03-12T20:00:07.332Z,8.60
2023-03-12T20:02:32.640Z,8.50
2023-03-12T20:04:57.233Z,8.60
2023-03-12T20:07:21.717Z,8.70
2023-03-12T20:09:46.190Z,8.70
2023-03-12T20:12:10.732Z,8.70
2023-03-12T20:14:35.218Z,8.70
2023-03-12T20:17:01.323Z,8.60
2023-03-12T20:19:25.960Z,8.60
2023-03-12T20:21:50.556Z,8.60
2023-03-12T20:24:15.031Z,8.50
2023-03-12T20:26:41.433Z,8.50
2023-03-12T20:29:06.408Z,8.50
2023-03-12T20:31:30.885Z,8.40
2023-03-12T20:33:57.119Z,8.40
2023-03-12T20:36:23.990Z,8.40
2023-03-12T20:38:50.220Z,8.30
2023-03-12T20:41:15.748Z,8.20
2023-03-12T20:43:40.410Z,8.10
2023-03-12T20:46:05.149Z,7.90
2023-03-12T20:48:29.724Z,7.90
2023-03-12T20:50:55.749Z,7.90
2023-03-12T20:53:20.354Z,7.70
2023-03-12T20:55:45.025Z,7.70
2023-03-12T20:58:09.901Z,7.70
2023-03-12T21:00:35.431Z,7.80
2023-03-12T21:03:00.024Z,7.70
2023-03-12T21:05:25.147Z,7.70
2023-03-12T21:07:51.252Z,7.70
2023-03-12T21:10:15.755Z,7.60
2023-03-12T21:12:40.242Z,7.60
2023-03-12T21:15:07.386Z,7.60
2023-03-12T21:17:33.796Z,7.70
2023-03-12T21:19:58.295Z,7.70
2023-03-12T21:22:24.327Z,7.70
2023-03-12T21:24:50.208Z,7.70
2023-03-12T21:27:14.668Z,7.50
2023-03-12T21:29:39.115Z,7.40
2023-03-12T21:32:03.552Z,7.50
2023-03-12T21:34:30.997Z,7.60
2023-03-12T21:36:55.346Z,7.70
2023-03-12T21:39:22.973Z,7.70
2023-03-12T21:41:48.905Z,7.60
2023-03-12T21:44:16.509Z,7.60
2023-03-12T21:46:41.208Z,7.50
2023-03-12T21:49:05.839Z,7.50
2023-03-12T21:51:30.241Z,7.50
2023-03-12T21:53:56.162Z,7.40
2023-03-12T21:56:20.555Z,7.40
2023-03-12T21:58:47.750Z,7.40
2023-03-12T22:01:14.588Z,7.30
2023-03-12T22:03:40.162Z,7.30
2023-03-12T22:06:05.048Z,7.20
2023-03-12T22:08:29.664Z,7.20
2023-03-12T22:10:54.266Z,7.00
2023-03-12T22:13:18.999Z,6.90
2023-03-12T22:15:48.224Z,6.60
2023-03-12T22:18:12.732Z,6.40
2023-03-12T22:20:37.353Z,6.20
2023-03-12T22:23:01.944Z,6.10
2023-03-12T22:25:26.501Z,6.00
2023-03-12T22:27:50.946Z,5.90
2023-03-12T22:30:15.886Z,5.80
2023-03-12T22:32:41.944Z,5.70
2023-03-12T22:35:06.975Z,5.60
2023-03-12T22:37:31.401Z,5.50
2023-03-12T22:40:01.475Z,5.40
2023-03-12T22:42:25.894Z,5.50
2023-03-12T22:44:50.299Z,5.50
2023-03-12T22:47:14.866Z,5.40
2023-03-12T22:49:40.880Z,5.50
2023-03-12T22:52:05.775Z,5.50
2023-03-12T22:54:30.288Z,5.60
2023-03-12T22:56:54.855Z,5.80
2023-03-12T22:59:19.288Z,5.90
2023-03-12T23:01:43.841Z,5.90
2023-03-12T23:04:08.368Z,6.00
2023-03-12T23:06:34.244Z,6.00
2023-03-12T23:08:59.186Z,6.10
2023-03-12T23:11:25.743Z,6.20
2023-03-12T23:13:50.668Z,6.20
2023-03-12T23:16:17.186Z,6.30
2023-03-12T23:18:43.037Z,6.20
2023-03-12T23:21:10.733Z,6.20
2023-03-12T23:23:39.479Z,6.30
2023-03-12T23:26:04.219Z,6.30
2023-03-12T23:28:29.438Z,6.20
2023-03-12T23:30:57.710Z,6.20
2023-03-12T23:33:22.165Z,6.10
2023-03-12T23:35:57.587Z,6.00
2023-03-12T23:38:22.322Z,5.90
2023-03-12T23:40:48.321Z,6.00
2023-03-12T23:43:12.801Z,6.00
2023-03-12T23:45:37.199Z,5.90
2023-03-12T23:48:01.659Z,5.70
2023-03-12T23:50:26.081Z,5.70
2023-03-12T23:52:50.544Z,5.70
2023-03-12T23:55:14.871Z,5.80
2023-03-12T23:57:40.775Z,5.70
